createdAt,value
2019-02-15T00:00:14.122Z,0.00
2019-02-15T00:01:14.109Z,0.00
2019-02-15T00:02:14.148Z,0.00
2019-02-15T00:03:14.113Z,0.00
2019-02-15T00:04:14.077Z,0.00
2019-02-15T00:05:14.065Z,0.00
2019-02-15T00:06:14.054Z,0.00
2019-02-15T00:07:14.044Z,0.00
2019-02-15T00:08:14.055Z,0.00
2019-02-15T00:09:14.025Z,0.00
2019-02-15T00:10:14.010Z,0.00
2019-02-15T00:11:14.000Z,0.00
2019-02-15T00:12:13.988Z,0.00
2019-02-15T00:13:14.030Z,0.00
2019-02-15T00:14:13.966Z,0.00
2019-02-15T00:15:13.957Z,0.00
2019-02-15T00:16:13.944Z,0.00
2019-02-15T00:17:13.932Z,0.00
2019-02-15T00:18:13.924Z,0.00
2019-02-15T00:19:13.936Z,0.00
2019-02-15T00:20:13.902Z,0.00
2019-02-15T00:21:13.890Z,0.00
2019-02-15T00:22:13.879Z,0.00
2019-02-15T00:23:13.866Z,0.00
2019-02-15T00:24:13.879Z,0.00
2019-02-15T00:25:13.843Z,0.00
2019-02-15T00:26:13.834Z,0.00
2019-02-15T00:27:13.821Z,0.00
2019-02-15T00:28:13.813Z,0.00
2019-02-15T00:29:13.823Z,0.00
2019-02-15T00:30:13.789Z,0.00
2019-02-15T00:31:13.776Z,0.00
2019-02-15T00:32:13.771Z,0.00
2019-02-15T00:33:13.760Z,0.00
2019-02-15T00:34:13.767Z,0.00
2019-02-15T00:35:13.733Z,0.00
2019-02-15T00:36:13.718Z,0.00
2019-02-15T00:37:13.709Z,0.00
2019-02-15T00:38:13.703Z,0.00
2019-02-15T00:39:13.712Z,0.00
2019-02-15T00:40:13.675Z,0.00
2019-02-15T00:41:13.663Z,0.00
2019-02-15T00:42:13.654Z,0.00
2019-02-15T00:43:21.918Z,0.00
2019-02-15T00:44:14.653Z,0.00
2019-02-15T00:45:13.618Z,0.00
2019-02-15T00:46:13.607Z,0.00
2019-02-15T00:47:13.597Z,0.00
2019-02-15T00:48:13.586Z,0.00
2019-02-15T00:49:13.598Z,0.00
2019-02-15T00:50:13.568Z,0.00
2019-02-15T00:51:13.552Z,0.00
2019-02-15T00:52:13.538Z,0.00
2019-02-15T00:53:13.529Z,0.00
2019-02-15T00:54:13.541Z,0.00
2019-02-15T00:55:13.506Z,0.00
2019-02-15T00:56:13.493Z,0.00
2019-02-15T00:57:13.483Z,0.00
2019-02-15T00:58:13.470Z,0.00
2019-02-15T00:59:13.485Z,0.00
2019-02-15T01:00:13.456Z,0.00
2019-02-15T01:01:13.437Z,0.00
2019-02-15T01:02:13.428Z,0.00
2019-02-15T01:03:13.416Z,0.00
2019-02-15T01:04:13.430Z,0.00
2019-02-15T01:05:13.393Z,0.00
2019-02-15T01:06:13.381Z,0.00
2019-02-15T01:07:13.370Z,0.00
2019-02-15T01:08:13.359Z,0.00
2019-02-15T01:09:13.374Z,0.00
2019-02-15T01:10:13.336Z,0.00
2019-02-15T01:11:13.326Z,0.00
2019-02-15T01:12:13.315Z,0.00
2019-02-15T01:13:13.304Z,0.00
2019-02-15T01:14:13.317Z,0.00
2019-02-15T01:15:13.279Z,0.00
2019-02-15T01:16:13.270Z,0.00
2019-02-15T01:17:13.263Z,0.00
2019-02-15T01:18:13.251Z,0.00
2019-02-15T01:19:13.258Z,0.00
2019-02-15T01:20:13.225Z,0.00
2019-02-15T01:21:13.214Z,0.00
2019-02-15T01:22:13.203Z,0.00
2019-02-15T01:23:13.191Z,0.00
2019-02-15T01:24:13.205Z,0.00
2019-02-15T01:25:13.170Z,0.00
2019-02-15T01:26:13.158Z,0.00
2019-02-15T01:27:13.147Z,0.00
2019-02-15T01:28:13.136Z,0.00
2019-02-15T01:29:13.154Z,0.00
2019-02-15T01:30:13.113Z,0.00
2019-02-15T01:31:13.102Z,0.00
2019-02-15T01:32:13.090Z,0.00
2019-02-15T01:33:13.081Z,0.00
2019-02-15T01:34:13.095Z,0.00
2019-02-15T01:35:13.055Z,0.00
2019-02-15T01:36:13.045Z,0.00
2019-02-15T01:37:13.035Z,0.00
2019-02-15T01:38:13.024Z,0.00
2019-02-15T01:39:13.037Z,0.00
2019-02-15T01:40:13.000Z,0.00
2019-02-15T01:41:12.990Z,0.00
2019-02-15T01:42:12.979Z,0.00
2019-02-15T01:43:12.966Z,0.00
2019-02-15T01:44:12.981Z,0.00
2019-02-15T01:45:12.944Z,0.00
2019-02-15T01:46:12.934Z,0.00
2019-02-15T01:47:12.925Z,0.00
2019-02-15T01:48:12.911Z,0.00
2019-02-15T01:49:12.926Z,0.00
2019-02-15T01:50:12.887Z,0.00
2019-02-15T01:51:12.877Z,0.00
2019-02-15T01:52:12.867Z,0.00
2019-02-15T01:53:12.854Z,0.00
2019-02-15T01:54:12.870Z,0.00
2019-02-15T01:55:12.833Z,0.00
2019-02-15T01:56:12.828Z,0.00
2019-02-15T01:57:12.861Z,0.00
2019-02-15T01:58:12.799Z,0.00
2019-02-15T01:59:12.791Z,0.00
2019-02-15T02:00:12.805Z,0.00
2019-02-15T02:01:12.768Z,0.00
2019-02-15T02:02:12.755Z,0.00
2019-02-15T02:03:12.743Z,0.00
2019-02-15T02:04:12.739Z,0.00
2019-02-15T02:05:12.746Z,0.00
2019-02-15T02:06:12.709Z,0.00
2019-02-15T02:07:12.699Z,0.00
2019-02-15T02:08:12.688Z,0.00
2019-02-15T02:09:12.678Z,0.00
2019-02-15T02:10:12.692Z,0.00
2019-02-15T02:11:12.654Z,0.00
2019-02-15T02:12:12.642Z,0.00
2019-02-15T02:13:12.632Z,0.00
2019-02-15T02:14:12.623Z,0.00
2019-02-15T02:15:12.633Z,0.00
2019-02-15T02:16:12.597Z,0.00
2019-02-15T02:17:12.589Z,0.00
2019-02-15T02:18:12.581Z,0.00
2019-02-15T02:19:12.566Z,0.00
2019-02-15T02:20:12.581Z,0.00
2019-02-15T02:21:12.544Z,0.00
2019-02-15T02:22:12.531Z,0.00
2019-02-15T02:23:12.520Z,0.00
2019-02-15T02:24:12.512Z,0.00
2019-02-15T02:25:12.525Z,0.00
2019-02-15T02:26:12.487Z,0.00
2019-02-15T02:27:12.473Z,0.00
2019-02-15T02:28:12.464Z,0.00
2019-02-15T02:29:12.453Z,0.00
2019-02-15T02:30:12.468Z,0.00
2019-02-15T02:31:12.430Z,0.00
2019-02-15T02:32:12.442Z,0.00
2019-02-15T02:33:12.409Z,0.00
2019-02-15T02:34:12.408Z,0.00
2019-02-15T02:35:12.414Z,0.00
2019-02-15T02:36:12.376Z,0.00
2019-02-15T02:37:12.370Z,0.00
2019-02-15T02:38:12.361Z,0.00
2019-02-15T02:39:12.344Z,0.00
2019-02-15T02:40:12.358Z,0.00
2019-02-15T02:41:12.322Z,0.00
2019-02-15T02:42:12.310Z,0.00
2019-02-15T02:43:12.296Z,0.00
2019-02-15T02:44:12.283Z,0.00
2019-02-15T02:45:12.297Z,0.00
2019-02-15T02:46:12.262Z,0.00
2019-02-15T02:47:12.249Z,0.00
2019-02-15T02:48:12.273Z,0.00
2019-02-15T02:49:12.228Z,0.00
2019-02-15T02:50:12.259Z,0.00
2019-02-15T02:51:12.204Z,0.00
2019-02-15T02:52:12.194Z,0.00
2019-02-15T02:53:12.183Z,0.00
2019-02-15T02:54:12.175Z,0.00
2019-02-15T02:55:12.184Z,0.00
2019-02-15T02:56:12.161Z,0.00
2019-02-15T02:57:12.141Z,0.00
2019-02-15T02:58:12.127Z,0.00
2019-02-15T02:59:12.145Z,0.00
2019-02-15T03:00:12.131Z,0.00
2019-02-15T03:01:12.093Z,0.00
2019-02-15T03:02:12.082Z,0.00
2019-02-15T03:03:12.070Z,0.00
2019-02-15T03:04:12.060Z,0.00
2019-02-15T03:05:12.074Z,0.00
2019-02-15T03:06:12.037Z,0.00
2019-02-15T03:07:12.033Z,0.00
2019-02-15T03:08:12.015Z,0.00
2019-02-15T03:09:12.010Z,0.00
2019-02-15T03:10:12.018Z,0.00
2019-02-15T03:11:11.982Z,0.00
2019-02-15T03:12:11.970Z,0.00
2019-02-15T03:13:11.963Z,0.00
2019-02-15T03:14:12.067Z,0.00
2019-02-15T03:15:11.969Z,0.00
2019-02-15T03:16:11.929Z,0.00
2019-02-15T03:17:11.914Z,0.00
2019-02-15T03:18:11.959Z,0.00
2019-02-15T03:19:11.890Z,0.00
2019-02-15T03:20:11.906Z,0.00
2019-02-15T03:21:11.868Z,0.00
2019-02-15T03:22:11.919Z,0.00
2019-02-15T03:23:11.850Z,0.00
2019-02-15T03:24:11.838Z,0.00
2019-02-15T03:25:11.847Z,0.00
2019-02-15T03:26:11.816Z,0.00
2019-02-15T03:27:11.802Z,0.00
2019-02-15T03:28:11.792Z,0.00
2019-02-15T03:29:11.781Z,0.00
2019-02-15T03:30:11.809Z,0.00
2019-02-15T03:31:11.760Z,0.00
2019-02-15T03:32:11.762Z,0.00
2019-02-15T03:33:11.741Z,0.00
2019-02-15T03:34:11.733Z,0.00
2019-02-15T03:35:11.768Z,0.00
2019-02-15T03:36:11.738Z,0.00
2019-02-15T03:37:11.693Z,0.00
2019-02-15T03:38:11.678Z,0.00
2019-02-15T03:39:11.669Z,0.00
2019-02-15T03:40:11.682Z,0.00
2019-02-15T03:41:11.646Z,0.00
2019-02-15T03:42:11.633Z,0.00
2019-02-15T03:43:11.628Z,0.00
2019-02-15T03:44:21.404Z,0.00
2019-02-15T03:45:12.614Z,0.00
2019-02-15T03:46:11.617Z,0.00
2019-02-15T03:47:11.580Z,0.00
2019-02-15T03:48:11.569Z,0.00
2019-02-15T03:49:11.556Z,0.00
2019-02-15T03:50:11.550Z,0.00
2019-02-15T03:51:11.558Z,0.00
2019-02-15T03:52:11.527Z,0.00
2019-02-15T03:53:11.511Z,0.00
2019-02-15T03:54:11.505Z,0.00
2019-02-15T03:55:11.496Z,0.00
2019-02-15T03:56:11.512Z,0.00
2019-02-15T03:57:11.467Z,0.00
2019-02-15T03:58:11.466Z,0.00
2019-02-15T03:59:11.447Z,0.00
2019-02-15T04:00:11.435Z,0.00
2019-02-15T04:01:11.450Z,0.00
2019-02-15T04:02:11.412Z,0.00
2019-02-15T04:03:11.404Z,0.00
2019-02-15T04:04:11.389Z,0.00
2019-02-15T04:05:11.385Z,0.00
2019-02-15T04:06:11.392Z,0.00
2019-02-15T04:07:11.364Z,0.00
2019-02-15T04:08:11.346Z,0.00
2019-02-15T04:09:11.335Z,0.00
2019-02-15T04:10:11.323Z,0.00
2019-02-15T04:11:11.336Z,0.00
2019-02-15T04:12:11.303Z,0.00
2019-02-15T04:13:11.291Z,0.00
2019-02-15T04:14:11.279Z,0.00
2019-02-15T04:15:11.266Z,0.00
2019-02-15T04:16:11.279Z,0.00
2019-02-15T04:17:11.249Z,0.00
2019-02-15T04:18:11.251Z,0.00
2019-02-15T04:19:11.224Z,0.00
2019-02-15T04:20:11.220Z,0.00
2019-02-15T04:21:11.227Z,0.00
2019-02-15T04:22:11.193Z,0.00
2019-02-15T04:23:11.177Z,0.00
2019-02-15T04:24:13.381Z,0.00
2019-02-15T04:25:11.156Z,0.00
2019-02-15T04:26:11.171Z,0.00
2019-02-15T04:27:11.136Z,0.00
2019-02-15T04:28:11.121Z,0.00
2019-02-15T04:29:11.115Z,0.00
2019-02-15T04:30:11.100Z,0.00
2019-02-15T04:31:11.112Z,0.00
2019-02-15T04:32:11.076Z,0.00
2019-02-15T04:33:11.066Z,0.00
2019-02-15T04:34:11.060Z,0.00
2019-02-15T04:35:11.044Z,0.00
2019-02-15T04:36:11.059Z,0.00
2019-02-15T04:37:11.020Z,0.00
2019-02-15T04:38:11.012Z,0.00
2019-02-15T04:39:11.002Z,0.00
2019-02-15T04:40:10.989Z,0.00
2019-02-15T04:41:11.003Z,0.00
2019-02-15T04:42:10.972Z,0.00
2019-02-15T04:43:10.955Z,0.00
2019-02-15T04:44:10.944Z,0.00
2019-02-15T04:45:10.932Z,0.00
2019-02-15T04:46:10.945Z,0.00
2019-02-15T04:47:10.914Z,0.00
2019-02-15T04:48:10.898Z,0.00
2019-02-15T04:49:10.888Z,0.00
2019-02-15T04:50:10.878Z,0.00
2019-02-15T04:51:10.891Z,0.00
2019-02-15T04:52:10.863Z,0.00
2019-02-15T04:53:10.844Z,0.00
2019-02-15T04:54:10.831Z,0.00
2019-02-15T04:55:10.820Z,0.00
2019-02-15T04:56:10.837Z,0.00
2019-02-15T04:57:10.800Z,0.00
2019-02-15T04:58:10.854Z,0.00
2019-02-15T04:59:10.780Z,0.00
2019-02-15T05:00:10.769Z,0.00
2019-02-15T05:01:10.832Z,0.00
2019-02-15T05:02:10.742Z,0.00
2019-02-15T05:03:10.732Z,0.00
2019-02-15T05:04:10.719Z,0.00
2019-02-15T05:05:10.710Z,0.00
2019-02-15T05:06:10.722Z,0.00
2019-02-15T05:07:10.686Z,0.00
2019-02-15T05:08:10.678Z,0.00
2019-02-15T05:09:10.668Z,0.00
2019-02-15T05:10:10.655Z,0.00
2019-02-15T05:11:10.666Z,0.00
2019-02-15T05:12:10.631Z,0.00
2019-02-15T05:13:10.621Z,0.00
2019-02-15T05:14:10.634Z,0.00
2019-02-15T05:15:10.597Z,0.00
2019-02-15T05:16:10.612Z,0.00
2019-02-15T05:17:10.574Z,0.00
2019-02-15T05:18:10.564Z,0.00
2019-02-15T05:19:10.555Z,0.00
2019-02-15T05:20:10.541Z,0.00
2019-02-15T05:21:12.530Z,0.00
2019-02-15T05:22:10.520Z,0.00
2019-02-15T05:23:10.509Z,0.00
2019-02-15T05:24:10.498Z,0.00
2019-02-15T05:25:10.486Z,0.00
2019-02-15T05:26:10.479Z,0.00
2019-02-15T05:27:10.490Z,0.00
2019-02-15T05:28:10.454Z,0.00
2019-02-15T05:29:10.440Z,0.00
2019-02-15T05:30:10.428Z,0.00
2019-02-15T05:31:10.443Z,0.00
2019-02-15T05:32:10.412Z,0.00
2019-02-15T05:33:10.407Z,0.00
2019-02-15T05:34:10.386Z,0.00
2019-02-15T05:35:10.373Z,0.00
2019-02-15T05:36:10.365Z,0.00
2019-02-15T05:37:10.376Z,0.00
2019-02-15T05:38:10.338Z,0.00
2019-02-15T05:39:10.330Z,0.00
2019-02-15T05:40:10.318Z,0.00
2019-02-15T05:41:10.307Z,0.00
2019-02-15T05:42:10.317Z,0.00
2019-02-15T05:43:10.284Z,0.00
2019-02-15T05:44:10.273Z,0.00
2019-02-15T05:45:10.262Z,0.00
2019-02-15T05:46:10.255Z,0.00
2019-02-15T05:47:10.269Z,0.00
2019-02-15T05:48:10.226Z,0.00
2019-02-15T05:49:10.221Z,0.00
2019-02-15T05:50:10.206Z,0.00
2019-02-15T05:51:10.195Z,0.00
2019-02-15T05:52:10.207Z,0.00
2019-02-15T05:53:10.172Z,0.00
2019-02-15T05:54:10.165Z,0.00
2019-02-15T05:55:10.154Z,0.00
2019-02-15T05:56:10.143Z,0.00
2019-02-15T05:57:10.158Z,0.00
2019-02-15T05:58:10.115Z,0.00
2019-02-15T05:59:10.103Z,0.00
2019-02-15T06:00:10.094Z,0.00
2019-02-15T06:01:10.085Z,0.00
2019-02-15T06:02:10.095Z,0.00
2019-02-15T06:03:10.061Z,0.00
2019-02-15T06:04:10.050Z,0.00
2019-02-15T06:05:10.061Z,0.00
2019-02-15T06:06:10.027Z,0.00
2019-02-15T06:07:10.040Z,0.00
2019-02-15T06:08:10.004Z,0.00
2019-02-15T06:09:09.994Z,0.00
2019-02-15T06:10:09.981Z,0.00
2019-02-15T06:11:09.976Z,0.00
2019-02-15T06:12:09.985Z,0.00
2019-02-15T06:13:09.951Z,0.00
2019-02-15T06:14:09.939Z,0.00
2019-02-15T06:15:15.330Z,0.00
2019-02-15T06:16:10.914Z,0.00
2019-02-15T06:17:09.933Z,0.00
2019-02-15T06:18:09.894Z,0.00
2019-02-15T06:19:09.881Z,0.00
2019-02-15T06:20:09.869Z,0.00
2019-02-15T06:21:09.860Z,0.00
2019-02-15T06:22:10.623Z,0.00
2019-02-15T06:23:09.837Z,4.00
2019-02-15T06:24:09.826Z,0.00
2019-02-15T06:25:09.813Z,4.00
2019-02-15T06:26:09.804Z,0.00
2019-02-15T06:27:09.816Z,4.00
2019-02-15T06:28:10.539Z,4.00
2019-02-15T06:29:09.769Z,4.00
2019-02-15T06:30:09.761Z,4.00
2019-02-15T06:31:09.753Z,8.00
2019-02-15T06:32:09.790Z,8.00
2019-02-15T06:33:09.724Z,8.00
2019-02-15T06:34:09.721Z,8.00
2019-02-15T06:35:09.708Z,8.00
2019-02-15T06:36:09.691Z,12.00
2019-02-15T06:37:09.704Z,12.00
2019-02-15T06:38:09.671Z,16.00
2019-02-15T06:39:09.658Z,20.00
2019-02-15T06:40:09.646Z,20.00
2019-02-15T06:41:09.644Z,24.00
2019-02-15T06:42:09.654Z,24.00
2019-02-15T06:43:09.612Z,28.00
2019-02-15T06:44:09.602Z,32.00
2019-02-15T06:45:09.590Z,36.00
2019-02-15T06:46:09.580Z,36.00
2019-02-15T06:47:09.596Z,40.00
2019-02-15T06:48:09.556Z,44.00
2019-02-15T06:49:09.551Z,48.00
2019-02-15T06:50:09.570Z,52.00
2019-02-15T06:51:09.524Z,60.00
2019-02-15T06:52:09.544Z,64.00
2019-02-15T06:53:10.126Z,68.00
2019-02-15T06:54:09.488Z,72.00
2019-02-15T06:55:09.483Z,80.00
2019-02-15T06:56:09.471Z,84.00
2019-02-15T06:57:09.481Z,88.00
2019-02-15T06:58:09.445Z,92.00
2019-02-15T06:59:09.433Z,96.00
2019-02-15T07:00:09.427Z,100.00
2019-02-15T07:01:09.410Z,108.00
2019-02-15T07:02:09.426Z,112.00
2019-02-15T07:03:09.389Z,116.00
2019-02-15T07:04:09.379Z,120.00
2019-02-15T07:05:09.367Z,128.00
2019-02-15T07:06:09.355Z,132.00
2019-02-15T07:07:09.369Z,136.00
2019-02-15T07:08:09.331Z,140.00
2019-02-15T07:09:09.339Z,148.00
2019-02-15T07:10:09.311Z,156.00
2019-02-15T07:11:09.302Z,156.00
2019-02-15T07:12:09.291Z,164.00
2019-02-15T07:13:09.303Z,168.00
2019-02-15T07:14:09.265Z,172.00
2019-02-15T07:15:09.254Z,176.00
2019-02-15T07:16:09.246Z,180.00
2019-02-15T07:17:09.233Z,184.00
2019-02-15T07:18:09.244Z,188.00
2019-02-15T07:19:09.210Z,196.00
2019-02-15T07:20:09.200Z,196.00
2019-02-15T07:21:09.194Z,200.00
2019-02-15T07:22:09.179Z,208.00
2019-02-15T07:23:09.189Z,212.00
2019-02-15T07:24:09.152Z,216.00
2019-02-15T07:25:09.146Z,220.00
2019-02-15T07:26:09.130Z,220.00
2019-02-15T07:27:09.121Z,228.00
2019-02-15T07:28:09.139Z,232.00
2019-02-15T07:29:09.097Z,236.00
2019-02-15T07:30:09.169Z,240.00
2019-02-15T07:31:09.081Z,244.00
2019-02-15T07:32:09.067Z,248.00
2019-02-15T07:33:09.077Z,248.00
2019-02-15T07:34:09.080Z,252.00
2019-02-15T07:35:09.031Z,256.00
2019-02-15T07:36:09.018Z,260.00
2019-02-15T07:37:09.013Z,260.00
2019-02-15T07:38:09.026Z,268.00
2019-02-15T07:39:08.988Z,272.00
2019-02-15T07:40:08.976Z,272.00
2019-02-15T07:41:08.965Z,276.00
2019-02-15T07:42:08.952Z,280.00
2019-02-15T07:43:08.967Z,284.00
2019-02-15T07:44:08.928Z,288.00
2019-02-15T07:45:08.917Z,288.00
2019-02-15T07:46:08.906Z,292.00
2019-02-15T07:47:08.896Z,292.00
2019-02-15T07:48:08.966Z,296.00
2019-02-15T07:49:08.877Z,300.00
2019-02-15T07:50:08.865Z,304.00
2019-02-15T07:51:09.894Z,304.00
2019-02-15T07:52:08.839Z,308.00
2019-02-15T07:53:09.212Z,308.00
2019-02-15T07:54:08.816Z,312.00
2019-02-15T07:55:08.805Z,316.00
2019-02-15T07:56:08.801Z,316.00
2019-02-15T07:57:08.782Z,320.00
2019-02-15T07:58:08.795Z,324.00
2019-02-15T07:59:08.762Z,324.00
2019-02-15T08:00:08.756Z,328.00
2019-02-15T08:01:08.738Z,328.00
2019-02-15T08:02:08.732Z,328.00
2019-02-15T08:03:08.741Z,332.00
2019-02-15T08:04:08.705Z,336.00
2019-02-15T08:05:08.697Z,336.00
2019-02-15T08:06:08.685Z,340.00
2019-02-15T08:07:08.670Z,340.00
2019-02-15T08:08:08.684Z,344.00
2019-02-15T08:09:10.592Z,348.00
2019-02-15T08:10:08.640Z,348.00
2019-02-15T08:11:08.629Z,348.00
2019-02-15T08:12:08.616Z,352.00
2019-02-15T08:13:08.732Z,352.00
2019-02-15T08:14:14.528Z,352.00
2019-02-15T08:15:09.583Z,360.00
2019-02-15T08:16:08.573Z,360.00
2019-02-15T08:17:08.559Z,360.00
2019-02-15T08:18:08.579Z,360.00
2019-02-15T08:19:08.538Z,364.00
2019-02-15T08:20:08.526Z,364.00
2019-02-15T08:21:08.515Z,368.00
2019-02-15T08:22:08.506Z,372.00
2019-02-15T08:23:08.515Z,372.00
2019-02-15T08:24:08.543Z,376.00
2019-02-15T08:25:08.472Z,376.00
2019-02-15T08:26:08.458Z,376.00
2019-02-15T08:27:08.446Z,380.00
2019-02-15T08:28:08.464Z,388.00
2019-02-15T08:29:08.424Z,384.00
2019-02-15T08:30:08.416Z,388.00
2019-02-15T08:31:08.401Z,388.00
2019-02-15T08:32:08.392Z,392.00
2019-02-15T08:33:08.412Z,396.00
2019-02-15T08:34:08.370Z,400.00
2019-02-15T08:35:08.356Z,396.00
2019-02-15T08:36:08.347Z,400.00
2019-02-15T08:37:08.338Z,400.00
2019-02-15T08:38:08.349Z,404.00
2019-02-15T08:39:08.317Z,404.00
2019-02-15T08:40:08.302Z,408.00
2019-02-15T08:41:08.291Z,412.00
2019-02-15T08:42:08.278Z,408.00
2019-02-15T08:43:08.643Z,412.00
2019-02-15T08:44:08.259Z,416.00
2019-02-15T08:45:08.248Z,416.00
2019-02-15T08:46:08.285Z,416.00
2019-02-15T08:47:08.222Z,420.00
2019-02-15T08:48:08.237Z,420.00
2019-02-15T08:49:08.203Z,424.00
2019-02-15T08:50:08.189Z,424.00
2019-02-15T08:51:08.177Z,428.00
2019-02-15T08:52:08.179Z,428.00
2019-02-15T08:53:08.181Z,432.00
2019-02-15T08:54:08.168Z,432.00
2019-02-15T08:55:08.165Z,436.00
2019-02-15T08:56:08.123Z,436.00
2019-02-15T08:57:08.167Z,436.00
2019-02-15T08:58:08.105Z,440.00
2019-02-15T08:59:08.119Z,444.00
2019-02-15T09:00:08.079Z,440.00
2019-02-15T09:01:08.071Z,444.00
2019-02-15T09:02:08.059Z,448.00
2019-02-15T09:03:08.057Z,448.00
2019-02-15T09:04:08.060Z,448.00
2019-02-15T09:05:08.038Z,448.00
2019-02-15T09:06:08.013Z,452.00
2019-02-15T09:07:08.001Z,456.00
2019-02-15T09:08:07.992Z,456.00
2019-02-15T09:09:08.017Z,456.00
2019-02-15T09:10:07.972Z,460.00
2019-02-15T09:11:07.958Z,460.00
2019-02-15T09:12:07.953Z,464.00
2019-02-15T09:13:07.940Z,464.00
2019-02-15T09:14:07.953Z,468.00
2019-02-15T09:15:07.915Z,472.00
2019-02-15T09:16:10.329Z,472.00
2019-02-15T09:17:07.897Z,472.00
2019-02-15T09:18:07.881Z,476.00
2019-02-15T09:19:07.902Z,480.00
2019-02-15T09:20:07.858Z,480.00
2019-02-15T09:21:07.849Z,484.00
2019-02-15T09:22:07.839Z,488.00
2019-02-15T09:23:07.827Z,492.00
2019-02-15T09:24:07.842Z,492.00
2019-02-15T09:25:07.804Z,496.00
2019-02-15T09:26:07.791Z,496.00
2019-02-15T09:27:07.781Z,500.00
2019-02-15T09:28:07.767Z,504.00
2019-02-15T09:29:07.781Z,508.00
2019-02-15T09:30:07.751Z,508.00
2019-02-15T09:31:07.738Z,512.00
2019-02-15T09:32:07.728Z,516.00
2019-02-15T09:33:07.710Z,520.00
2019-02-15T09:34:07.737Z,520.00
2019-02-15T09:35:07.690Z,520.00
2019-02-15T09:36:07.678Z,524.00
2019-02-15T09:37:07.664Z,528.00
2019-02-15T09:38:07.655Z,528.00
2019-02-15T09:39:07.669Z,532.00
2019-02-15T09:40:07.636Z,536.00
2019-02-15T09:41:07.621Z,540.00
2019-02-15T09:42:07.609Z,544.00
2019-02-15T09:43:07.599Z,548.00
2019-02-15T09:44:07.619Z,552.00
2019-02-15T09:45:07.576Z,556.00
2019-02-15T09:46:07.566Z,560.00
2019-02-15T09:47:07.550Z,560.00
2019-02-15T09:48:07.540Z,564.00
2019-02-15T09:49:07.556Z,568.00
2019-02-15T09:50:09.227Z,568.00
2019-02-15T09:51:07.519Z,576.00
2019-02-15T09:52:07.500Z,580.00
2019-02-15T09:53:07.485Z,584.00
2019-02-15T09:54:07.493Z,588.00
2019-02-15T09:55:07.457Z,592.00
2019-02-15T09:56:07.451Z,596.00
2019-02-15T09:57:07.434Z,600.00
2019-02-15T09:58:07.430Z,604.00
2019-02-15T09:59:07.435Z,612.00
2019-02-15T10:00:07.401Z,616.00
2019-02-15T10:01:07.388Z,620.00
2019-02-15T10:02:07.376Z,624.00
2019-02-15T10:03:07.371Z,632.00
2019-02-15T10:04:07.379Z,636.00
2019-02-15T10:05:07.343Z,644.00
2019-02-15T10:06:07.334Z,652.00
2019-02-15T10:07:07.319Z,660.00
2019-02-15T10:08:07.308Z,664.00
2019-02-15T10:09:07.323Z,672.00
2019-02-15T10:10:07.287Z,680.00
2019-02-15T10:11:07.276Z,684.00
2019-02-15T10:12:07.266Z,692.00
2019-02-15T10:13:07.255Z,696.00
2019-02-15T10:14:07.265Z,704.00
2019-02-15T10:15:07.231Z,708.00
2019-02-15T10:16:07.219Z,712.00
2019-02-15T10:17:07.207Z,728.00
2019-02-15T10:18:07.197Z,732.00
2019-02-15T10:19:07.212Z,740.00
2019-02-15T10:20:07.174Z,744.00
2019-02-15T10:21:07.163Z,748.00
2019-02-15T10:22:07.150Z,760.00
2019-02-15T10:23:07.140Z,764.00
2019-02-15T10:24:07.172Z,772.00
2019-02-15T10:25:07.116Z,780.00
2019-02-15T10:26:07.105Z,788.00
2019-02-15T10:27:07.095Z,792.00
2019-02-15T10:28:07.129Z,804.00
2019-02-15T10:29:07.073Z,812.00
2019-02-15T10:30:07.084Z,824.00
2019-02-15T10:31:07.050Z,832.00
2019-02-15T10:32:07.040Z,836.00
2019-02-15T10:33:07.026Z,848.00
2019-02-15T10:34:07.042Z,852.00
2019-02-15T10:35:07.004Z,864.00
2019-02-15T10:36:06.992Z,868.00
2019-02-15T10:37:06.981Z,876.00
2019-02-15T10:38:06.970Z,888.00
2019-02-15T10:39:07.018Z,892.00
2019-02-15T10:40:06.974Z,900.00
2019-02-15T10:41:06.939Z,908.00
2019-02-15T10:42:06.928Z,920.00
2019-02-15T10:43:06.915Z,928.00
2019-02-15T10:44:06.907Z,936.00
2019-02-15T10:45:06.917Z,944.00
2019-02-15T10:46:06.883Z,952.00
2019-02-15T10:47:13.819Z,964.00
2019-02-15T10:48:07.856Z,968.00
2019-02-15T10:49:06.858Z,980.00
2019-02-15T10:50:06.862Z,988.00
2019-02-15T10:51:06.824Z,996.00
2019-02-15T10:52:06.816Z,1008.00
2019-02-15T10:53:06.801Z,1012.00
2019-02-15T10:54:06.792Z,1020.00
2019-02-15T10:55:06.803Z,1028.00
2019-02-15T10:56:06.768Z,1032.00
2019-02-15T10:57:06.756Z,1040.00
2019-02-15T10:58:06.746Z,1048.00
2019-02-15T10:59:06.736Z,1056.00
2019-02-15T11:00:06.809Z,1064.00
2019-02-15T11:01:06.713Z,1068.00
2019-02-15T11:02:06.703Z,1076.00
2019-02-15T11:03:06.691Z,1080.00
2019-02-15T11:04:06.683Z,1088.00
2019-02-15T11:05:06.694Z,1092.00
2019-02-15T11:06:06.655Z,1096.00
2019-02-15T11:07:06.646Z,1108.00
2019-02-15T11:08:06.634Z,1112.00
2019-02-15T11:09:06.626Z,1116.00
2019-02-15T11:10:06.634Z,1124.00
2019-02-15T11:11:06.600Z,1132.00
2019-02-15T11:12:06.587Z,1136.00
2019-02-15T11:13:06.577Z,1140.00
2019-02-15T11:14:06.566Z,1148.00
2019-02-15T11:15:06.581Z,1156.00
2019-02-15T11:16:06.550Z,1160.00
2019-02-15T11:17:06.542Z,1160.00
2019-02-15T11:18:06.523Z,1164.00
2019-02-15T11:19:06.510Z,1164.00
2019-02-15T11:20:06.522Z,1164.00
2019-02-15T11:21:06.490Z,1164.00
2019-02-15T11:22:06.482Z,1172.00
2019-02-15T11:23:06.468Z,1168.00
2019-02-15T11:24:06.452Z,1168.00
2019-02-15T11:25:06.477Z,1164.00
2019-02-15T11:26:06.449Z,1168.00
2019-02-15T11:27:06.418Z,1168.00
2019-02-15T11:28:06.408Z,1168.00
2019-02-15T11:29:06.397Z,1164.00
2019-02-15T11:30:06.409Z,1164.00
2019-02-15T11:31:06.373Z,1168.00
2019-02-15T11:32:06.364Z,1164.00
2019-02-15T11:33:06.351Z,1164.00
2019-02-15T11:34:06.339Z,1164.00
2019-02-15T11:35:06.355Z,1160.00
2019-02-15T11:36:06.316Z,1156.00
2019-02-15T11:37:06.307Z,1156.00
2019-02-15T11:38:06.303Z,1148.00
2019-02-15T11:39:06.284Z,1144.00
2019-02-15T11:40:06.297Z,1140.00
2019-02-15T11:41:11.182Z,1136.00
2019-02-15T11:42:07.247Z,1132.00
2019-02-15T11:43:06.241Z,1128.00
2019-02-15T11:44:06.229Z,1124.00
2019-02-15T11:45:06.250Z,1120.00
2019-02-15T11:46:06.264Z,1116.00
2019-02-15T11:47:06.193Z,1108.00
2019-02-15T11:48:06.181Z,1104.00
2019-02-15T11:49:06.171Z,1096.00
2019-02-15T11:50:06.184Z,1092.00
2019-02-15T11:51:06.147Z,1088.00
2019-02-15T11:52:06.137Z,1084.00
2019-02-15T11:53:06.128Z,1080.00
2019-02-15T11:54:06.117Z,1072.00
2019-02-15T11:55:06.128Z,1072.00
2019-02-15T11:56:06.093Z,1076.00
2019-02-15T11:57:06.080Z,1076.00
2019-02-15T11:58:06.071Z,1076.00
2019-02-15T11:59:06.059Z,1076.00
2019-02-15T12:00:13.850Z,1072.00
2019-02-15T12:01:07.034Z,1072.00
2019-02-15T12:02:06.705Z,1072.00
2019-02-15T12:03:06.014Z,1072.00
2019-02-15T12:04:06.001Z,1072.00
2019-02-15T12:05:06.017Z,1076.00
2019-02-15T12:06:05.979Z,1080.00
2019-02-15T12:07:05.966Z,1080.00
2019-02-15T12:08:05.957Z,1080.00
2019-02-15T12:09:05.943Z,1084.00
2019-02-15T12:10:05.958Z,1084.00
2019-02-15T12:11:05.922Z,1084.00
2019-02-15T12:12:10.738Z,1084.00
2019-02-15T12:13:06.899Z,1084.00
2019-02-15T12:14:05.894Z,1084.00
2019-02-15T12:15:05.876Z,1084.00
2019-02-15T12:16:05.889Z,1084.00
2019-02-15T12:17:06.040Z,1084.00
2019-02-15T12:18:05.841Z,1084.00
2019-02-15T12:19:05.956Z,1084.00
2019-02-15T12:20:05.820Z,1088.00
2019-02-15T12:21:05.834Z,1084.00
2019-02-15T12:22:05.796Z,1084.00
2019-02-15T12:23:05.788Z,1084.00
2019-02-15T12:24:05.773Z,1088.00
2019-02-15T12:25:05.764Z,1088.00
2019-02-15T12:26:05.808Z,1084.00
2019-02-15T12:27:05.760Z,1084.00
2019-02-15T12:28:05.729Z,1084.00
2019-02-15T12:29:05.717Z,1088.00
2019-02-15T12:30:05.730Z,1084.00
2019-02-15T12:31:05.694Z,1084.00
2019-02-15T12:32:05.682Z,1084.00
2019-02-15T12:33:05.673Z,1084.00
2019-02-15T12:34:07.345Z,1084.00
2019-02-15T12:35:05.652Z,1080.00
2019-02-15T12:36:05.672Z,1080.00
2019-02-15T12:37:05.631Z,1080.00
2019-02-15T12:38:05.616Z,1080.00
2019-02-15T12:39:05.605Z,1080.00
2019-02-15T12:40:05.594Z,1076.00
2019-02-15T12:41:05.609Z,1076.00
2019-02-15T12:42:05.576Z,1072.00
2019-02-15T12:43:05.560Z,1076.00
2019-02-15T12:44:05.548Z,1072.00
2019-02-15T12:45:05.536Z,1076.00
2019-02-15T12:46:05.550Z,1072.00
2019-02-15T12:47:14.508Z,1072.00
2019-02-15T12:48:06.503Z,1068.00
2019-02-15T12:49:05.499Z,1064.00
2019-02-15T12:50:05.481Z,1068.00